createdAt,value
2023-07-21T00:00:14.210Z,0.53
2023-07-21T00:02:47.896Z,0.40
2023-07-21T00:05:19.961Z,0.30
2023-07-21T00:07:51.823Z,0.60
2023-07-21T00:10:23.708Z,0.47
2023-07-21T00:12:55.605Z,0.50
2023-07-21T00:15:27.502Z,0.50
2023-07-21T00:17:59.400Z,0.60
2023-07-21T00:20:31.458Z,0.60
2023-07-21T00:23:03.310Z,0.50
2023-07-21T00:25:35.240Z,0.67
2023-07-21T00:28:07.101Z,0.60
2023-07-21T00:30:39.102Z,0.57
2023-07-21T00:33:10.970Z,0.60
2023-07-21T00:35:42.894Z,0.50
2023-07-21T00:38:14.752Z,0.70
2023-07-21T00:40:46.665Z,0.60
2023-07-21T00:43:18.644Z,0.70
2023-07-21T00:45:50.640Z,0.53
2023-07-21T00:48:22.513Z,0.70
2023-07-21T00:50:54.427Z,0.80
2023-07-21T00:53:26.305Z,0.80
2023-07-21T00:55:58.560Z,0.47
2023-07-21T00:58:30.425Z,0.53
2023-07-21T01:01:02.444Z,0.50
2023-07-21T01:03:34.563Z,0.63
2023-07-21T01:06:06.960Z,0.50
2023-07-21T01:08:38.832Z,0.50
2023-07-21T01:11:10.708Z,0.50
2023-07-21T01:13:42.657Z,0.50
2023-07-21T01:16:15.235Z,0.70
2023-07-21T01:18:47.119Z,0.80
2023-07-21T01:21:19.058Z,0.67
2023-07-21T01:23:50.951Z,0.73
2023-07-21T01:26:23.035Z,0.60
2023-07-21T01:28:55.227Z,0.97
2023-07-21T01:31:27.141Z,0.80
2023-07-21T01:33:59.316Z,0.50
2023-07-21T01:36:31.198Z,0.60
2023-07-21T01:39:03.133Z,0.60
2023-07-21T01:41:35.416Z,0.77
2023-07-21T01:44:07.322Z,0.50
2023-07-21T01:46:39.229Z,0.90
2023-07-21T01:49:11.135Z,0.63
2023-07-21T01:51:42.989Z,0.63
2023-07-21T01:54:14.910Z,0.73
2023-07-21T01:56:46.797Z,0.60
2023-07-21T01:59:18.764Z,0.70
2023-07-21T02:01:50.858Z,0.67
2023-07-21T02:04:22.996Z,0.97
2023-07-21T02:06:54.922Z,0.67
2023-07-21T02:09:27.190Z,0.60
2023-07-21T02:11:59.077Z,0.67
2023-07-21T02:14:41.747Z,0.63
2023-07-21T02:17:13.762Z,0.77
2023-07-21T02:19:46.089Z,0.90
2023-07-21T02:22:17.972Z,0.60
2023-07-21T02:24:50.070Z,1.10
2023-07-21T02:27:21.962Z,0.80
2023-07-21T02:29:53.928Z,1.00
2023-07-21T02:32:25.884Z,0.87
2023-07-21T02:34:57.758Z,0.83
2023-07-21T02:37:29.628Z,0.90
2023-07-21T02:40:01.539Z,0.90
2023-07-21T02:42:33.850Z,1.10
2023-07-21T02:45:05.754Z,1.10
2023-07-21T02:47:37.694Z,1.03
2023-07-21T02:50:09.728Z,1.10
2023-07-21T02:52:42.171Z,0.97
2023-07-21T02:55:14.316Z,1.20
2023-07-21T02:57:46.578Z,1.10
2023-07-21T03:00:19.372Z,1.40
2023-07-21T03:02:52.994Z,1.00
2023-07-21T03:05:26.856Z,1.33
2023-07-21T03:07:58.881Z,1.20
2023-07-21T03:10:30.991Z,1.23
2023-07-21T03:13:03.315Z,1.30
2023-07-21T03:15:36.907Z,1.50
2023-07-21T03:18:12.936Z,1.47
2023-07-21T03:20:49.639Z,1.73
2023-07-21T03:23:22.114Z,1.57
2023-07-21T03:25:54.073Z,1.93
2023-07-21T03:28:26.901Z,1.67
2023-07-21T03:30:58.938Z,1.60
2023-07-21T03:33:31.288Z,1.50
2023-07-21T03:36:13.927Z,1.40
2023-07-21T03:38:45.800Z,1.50
2023-07-21T03:41:17.761Z,1.10
2023-07-21T03:43:49.813Z,1.50
2023-07-21T03:46:22.487Z,1.47
2023-07-21T03:49:04.850Z,1.37
2023-07-21T03:51:37.495Z,1.80
2023-07-21T03:54:09.586Z,1.60
2023-07-21T03:56:41.459Z,1.67
2023-07-21T03:59:13.561Z,1.63
2023-07-21T04:01:45.419Z,1.60
2023-07-21T04:04:18.108Z,1.83
2023-07-21T04:06:50.068Z,2.00
2023-07-21T04:09:21.975Z,1.67
2023-07-21T04:11:54.018Z,1.60
2023-07-21T04:14:25.958Z,1.63
2023-07-21T04:16:57.847Z,1.87
2023-07-21T04:19:29.746Z,1.90
2023-07-21T04:22:02.088Z,2.07
2023-07-21T04:24:34.008Z,2.20
2023-07-21T04:27:05.946Z,2.10
2023-07-21T04:29:39.234Z,2.03
2023-07-21T04:32:12.347Z,2.60
2023-07-21T04:34:44.268Z,2.30
2023-07-21T04:37:16.132Z,2.07
2023-07-21T04:39:49.733Z,1.73
2023-07-21T04:42:21.860Z,2.07
2023-07-21T04:44:53.763Z,2.40
2023-07-21T04:47:25.827Z,1.97
2023-07-21T04:50:02.357Z,2.40
2023-07-21T04:52:34.268Z,2.40
2023-07-21T04:55:06.693Z,1.63
2023-07-21T04:57:39.035Z,1.50
2023-07-21T05:00:11.217Z,2.00
2023-07-21T05:02:43.136Z,1.93
2023-07-21T05:05:15.104Z,1.93
2023-07-21T05:07:48.756Z,2.03
2023-07-21T05:10:21.008Z,2.13
2023-07-21T05:12:52.902Z,2.00
2023-07-21T05:15:29.158Z,1.57
2023-07-21T05:18:02.822Z,2.27
2023-07-21T05:20:53.002Z,2.43
2023-07-21T05:23:26.642Z,2.47
2023-07-21T05:26:00.306Z,2.40
2023-07-21T05:28:34.018Z,2.67
2023-07-21T05:31:05.954Z,2.37
2023-07-21T05:33:45.108Z,4.07
2023-07-21T05:36:17.600Z,2.90
2023-07-21T05:38:49.716Z,2.53
2023-07-21T05:41:21.651Z,3.00
2023-07-21T05:43:53.847Z,2.80
2023-07-21T05:46:25.996Z,2.97
2023-07-21T05:48:59.687Z,3.13
2023-07-21T05:51:31.612Z,3.27
2023-07-21T05:54:05.225Z,2.40
2023-07-21T05:56:37.059Z,2.47
2023-07-21T05:59:10.641Z,2.40
2023-07-21T06:01:43.100Z,2.07
2023-07-21T06:04:15.102Z,2.37
2023-07-21T06:06:48.648Z,2.17
2023-07-21T06:09:34.226Z,1.70
2023-07-21T06:12:10.750Z,1.80
2023-07-21T06:14:44.314Z,1.80
2023-07-21T06:17:23.902Z,1.90
2023-07-21T06:19:57.822Z,1.93
2023-07-21T06:22:29.890Z,1.77
2023-07-21T06:25:01.759Z,1.93
2023-07-21T06:27:33.700Z,1.77
2023-07-21T06:30:05.635Z,1.60
2023-07-21T06:32:39.274Z,2.17
2023-07-21T06:35:12.907Z,2.00
2023-07-21T06:37:49.493Z,1.70
2023-07-21T06:40:28.796Z,1.50
2023-07-21T06:43:05.332Z,2.13
2023-07-21T06:45:42.242Z,1.60
2023-07-21T06:48:15.832Z,1.20
2023-07-21T06:50:58.393Z,1.40
2023-07-21T06:53:30.317Z,1.30
2023-07-21T06:56:02.243Z,1.30
2023-07-21T06:58:34.131Z,0.80
2023-07-21T07:01:06.127Z,0.90
2023-07-21T07:03:38.026Z,1.03
2023-07-21T07:06:09.927Z,0.90
2023-07-21T07:08:41.845Z,0.70
2023-07-21T07:11:13.764Z,1.10
2023-07-21T07:13:45.925Z,0.90
2023-07-21T07:16:17.800Z,1.07
2023-07-21T07:18:49.661Z,0.80
2023-07-21T07:21:21.547Z,0.60
2023-07-21T07:23:53.383Z,0.80
2023-07-21T07:26:26.720Z,1.07
2023-07-21T07:28:58.666Z,0.80
2023-07-21T07:31:30.590Z,0.80
2023-07-21T07:34:02.612Z,0.97
2023-07-21T07:36:34.478Z,0.70
2023-07-21T07:39:06.371Z,1.20
2023-07-21T07:41:38.264Z,0.90
2023-07-21T07:44:10.153Z,1.23
2023-07-21T07:46:42.068Z,1.00
2023-07-21T07:49:14.086Z,1.00
2023-07-21T07:51:45.979Z,1.00
2023-07-21T07:54:17.856Z,1.13
2023-07-21T07:56:49.706Z,1.20
2023-07-21T07:59:21.591Z,1.10
2023-07-21T08:01:53.472Z,1.10
2023-07-21T08:04:25.605Z,1.10
2023-07-21T08:06:57.565Z,1.13
2023-07-21T08:09:29.447Z,1.23
2023-07-21T08:12:01.355Z,0.80
2023-07-21T08:14:33.243Z,1.20
2023-07-21T08:17:05.301Z,1.27
2023-07-21T08:19:37.320Z,1.50
2023-07-21T08:22:09.562Z,1.93
2023-07-21T08:24:41.625Z,1.60
2023-07-21T08:27:13.647Z,1.30
2023-07-21T08:29:45.646Z,2.00
2023-07-21T08:32:17.528Z,1.20
2023-07-21T08:34:49.674Z,1.60
2023-07-21T08:37:21.669Z,1.50
2023-07-21T08:39:53.499Z,1.70
2023-07-21T08:42:25.417Z,1.40
2023-07-21T08:44:57.374Z,1.70
2023-07-21T08:47:29.247Z,2.53
2023-07-21T08:50:01.275Z,1.20
2023-07-21T08:52:33.331Z,1.20
2023-07-21T08:55:05.486Z,1.40
2023-07-21T08:57:37.342Z,1.50
2023-07-21T09:00:09.207Z,1.40
2023-07-21T09:02:41.220Z,1.07
2023-07-21T09:05:13.072Z,1.13
2023-07-21T09:07:45.482Z,0.87
2023-07-21T09:10:18.398Z,0.93
2023-07-21T09:12:50.230Z,0.87
2023-07-21T09:15:22.089Z,0.80
2023-07-21T09:17:54.070Z,1.20
2023-07-21T09:20:25.980Z,0.80
2023-07-21T09:22:58.109Z,0.90
2023-07-21T09:25:30.080Z,1.17
2023-07-21T09:28:02.108Z,1.30
2023-07-21T09:30:33.983Z,0.87
2023-07-21T09:33:05.919Z,0.87
2023-07-21T09:35:37.841Z,1.00
2023-07-21T09:38:09.697Z,0.87
2023-07-21T09:40:41.554Z,0.83
2023-07-21T09:43:13.423Z,0.60
2023-07-21T09:45:45.577Z,0.67
2023-07-21T09:48:17.446Z,0.70
2023-07-21T09:50:49.549Z,0.70
2023-07-21T09:53:21.446Z,0.57
2023-07-21T09:55:53.537Z,0.60
2023-07-21T09:58:25.440Z,1.03
2023-07-21T10:00:57.442Z,1.10
2023-07-21T10:03:29.421Z,1.00
2023-07-21T10:06:01.590Z,0.90
2023-07-21T10:08:33.457Z,0.87
2023-07-21T10:11:05.312Z,1.07
2023-07-21T10:13:37.204Z,0.90
2023-07-21T10:16:09.145Z,0.70
2023-07-21T10:18:41.213Z,1.30
2023-07-21T10:21:13.092Z,0.70
2023-07-21T10:23:44.958Z,0.77
2023-07-21T10:26:16.836Z,0.83
2023-07-21T10:28:48.724Z,0.70
2023-07-21T10:31:20.613Z,0.83
2023-07-21T10:33:52.787Z,0.93
2023-07-21T10:36:24.651Z,0.73
2023-07-21T10:38:58.501Z,1.07
2023-07-21T10:41:30.643Z,1.10
2023-07-21T10:44:02.754Z,1.00
2023-07-21T10:46:34.616Z,1.87
2023-07-21T10:49:06.763Z,0.80
2023-07-21T10:51:38.607Z,0.80
2023-07-21T10:54:10.528Z,1.23
2023-07-21T10:56:42.547Z,0.77
2023-07-21T10:59:14.438Z,1.00
2023-07-21T11:01:46.401Z,0.90
2023-07-21T11:04:18.421Z,1.00
2023-07-21T11:06:50.477Z,2.00
2023-07-21T11:09:22.619Z,0.90
2023-07-21T11:11:54.897Z,1.10
2023-07-21T11:14:26.810Z,1.43
2023-07-21T11:16:58.987Z,1.87
2023-07-21T11:19:31.180Z,1.60
2023-07-21T11:22:03.059Z,1.57
2023-07-21T11:24:35.061Z,1.60
2023-07-21T11:27:10.348Z,2.10
2023-07-21T11:29:40.672Z,1.50
2023-07-21T11:32:12.595Z,1.77
2023-07-21T11:34:44.541Z,1.70
2023-07-21T11:37:16.520Z,1.57
2023-07-21T11:39:48.843Z,1.40
2023-07-21T11:42:20.725Z,1.60
2023-07-21T11:44:52.593Z,1.37
2023-07-21T11:47:24.496Z,1.60
2023-07-21T11:49:56.367Z,1.73
2023-07-21T11:52:28.773Z,1.60
2023-07-21T11:55:00.868Z,1.57
2023-07-21T11:57:32.749Z,1.00
2023-07-21T12:00:04.631Z,1.43
2023-07-21T12:02:38.346Z,1.20
2023-07-21T12:05:10.446Z,1.20
2023-07-21T12:07:42.342Z,0.93
2023-07-21T12:10:14.389Z,1.53
2023-07-21T12:12:46.363Z,1.00
2023-07-21T12:15:18.215Z,1.20
2023-07-21T12:17:50.247Z,1.40
2023-07-21T12:20:22.129Z,1.53
2023-07-21T12:22:54.121Z,1.30
2023-07-21T12:25:26.086Z,1.93
2023-07-21T12:27:58.017Z,1.30
2023-07-21T12:30:30.390Z,1.40
2023-07-21T12:33:02.559Z,1.40
2023-07-21T12:35:34.723Z,1.30
2023-07-21T12:38:06.870Z,1.40
2023-07-21T12:40:38.928Z,1.50
2023-07-21T12:43:10.817Z,1.33
2023-07-21T12:45:42.772Z,1.63
2023-07-21T12:48:14.729Z,1.23
2023-07-21T12:50:46.725Z,1.33
2023-07-21T12:53:18.599Z,1.60
2023-07-21T12:55:50.496Z,1.57
2023-07-21T12:58:22.370Z,1.27
2023-07-21T13:00:54.236Z,1.40
2023-07-21T13:03:26.339Z,1.40
2023-07-21T13:05:58.335Z,1.40
2023-07-21T13:08:30.518Z,1.40
2023-07-21T13:11:02.473Z,1.40
2023-07-21T13:13:34.350Z,1.50
2023-07-21T13:16:06.323Z,1.20
2023-07-21T13:18:38.459Z,1.53
2023-07-21T13:21:12.634Z,1.40
2023-07-21T13:23:44.629Z,1.40
2023-07-21T13:26:16.473Z,1.60
2023-07-21T13:28:48.367Z,1.60
2023-07-21T13:31:20.322Z,1.63
2023-07-21T13:33:52.269Z,1.67
2023-07-21T13:36:24.461Z,1.80
2023-07-21T13:38:56.765Z,1.63
2023-07-21T13:41:28.812Z,2.80
2023-07-21T13:44:00.732Z,2.97
2023-07-21T13:46:32.706Z,2.60
2023-07-21T13:49:05.176Z,2.70
2023-07-21T13:51:37.306Z,2.70
2023-07-21T13:54:10.943Z,2.93
2023-07-21T13:56:42.681Z,2.60
2023-07-21T13:59:14.600Z,3.10
2023-07-21T14:01:46.582Z,3.03
2023-07-21T14:04:18.829Z,3.10
2023-07-21T14:06:50.727Z,3.30
2023-07-21T14:09:22.638Z,3.60
2023-07-21T14:11:54.578Z,2.70
2023-07-21T14:14:26.507Z,3.30
2023-07-21T14:16:58.502Z,2.90
2023-07-21T14:19:30.545Z,2.70
2023-07-21T14:22:02.809Z,2.20
2023-07-21T14:24:34.762Z,2.83
2023-07-21T14:27:06.909Z,3.10
2023-07-21T14:29:40.647Z,3.70
2023-07-21T14:32:12.554Z,3.13
2023-07-21T14:34:44.462Z,3.30
2023-07-21T14:37:16.340Z,3.17
2023-07-21T14:39:48.242Z,3.13
2023-07-21T14:42:21.207Z,2.83
2023-07-21T14:44:53.364Z,2.77
2023-07-21T14:47:25.299Z,2.93
2023-07-21T14:49:57.205Z,2.90
2023-07-21T14:52:29.112Z,2.90
2023-07-21T14:55:01.005Z,3.07
2023-07-21T14:57:32.886Z,3.00
2023-07-21T15:00:04.937Z,3.27
2023-07-21T15:02:36.973Z,3.30
2023-07-21T15:05:08.917Z,3.10
2023-07-21T15:07:40.822Z,3.27
2023-07-21T15:10:12.888Z,2.90
2023-07-21T15:12:44.990Z,3.23
2023-07-21T15:15:16.899Z,3.10
2023-07-21T15:17:48.855Z,3.73
2023-07-21T15:20:20.875Z,3.87
2023-07-21T15:22:52.786Z,3.23
2023-07-21T15:25:24.649Z,3.17
2023-07-21T15:27:56.542Z,3.17
2023-07-21T15:30:28.744Z,3.13
2023-07-21T15:33:00.723Z,2.60
2023-07-21T15:35:32.651Z,3.43
2023-07-21T15:38:04.605Z,3.30
2023-07-21T15:40:36.719Z,3.00
2023-07-21T15:43:08.602Z,3.20
2023-07-21T15:45:40.539Z,3.07
2023-07-21T15:48:12.709Z,3.37
2023-07-21T15:50:44.901Z,3.13
2023-07-21T15:53:16.965Z,3.10
2023-07-21T15:55:48.949Z,3.00
2023-07-21T15:58:20.861Z,3.10
2023-07-21T16:00:52.843Z,3.70
2023-07-21T16:03:24.722Z,3.27
2023-07-21T16:05:56.876Z,3.57
2023-07-21T16:08:28.811Z,3.63
2023-07-21T16:11:00.745Z,3.20
2023-07-21T16:13:35.745Z,3.30
2023-07-21T16:16:06.764Z,2.93
2023-07-21T16:18:38.768Z,2.90
2023-07-21T16:21:10.641Z,2.50
2023-07-21T16:23:42.579Z,2.20
2023-07-21T16:26:14.416Z,2.30
2023-07-21T16:28:46.291Z,1.90
2023-07-21T16:31:18.393Z,1.43
2023-07-21T16:33:50.480Z,1.30
2023-07-21T16:36:22.369Z,1.60
2023-07-21T16:38:54.212Z,1.57
2023-07-21T16:41:26.242Z,1.60
2023-07-21T16:43:58.309Z,1.73
2023-07-21T16:46:30.490Z,1.47
2023-07-21T16:49:02.549Z,1.30
2023-07-21T16:51:34.544Z,1.50
2023-07-21T16:54:06.638Z,1.50
2023-07-21T16:56:38.503Z,1.67
2023-07-21T16:59:10.376Z,1.87
2023-07-21T17:01:42.276Z,1.30
2023-07-21T17:04:16.390Z,1.50
2023-07-21T17:06:47.553Z,1.30
2023-07-21T17:09:19.437Z,1.33
2023-07-21T17:11:51.362Z,1.73
2023-07-21T17:14:23.201Z,1.50
2023-07-21T17:16:55.129Z,1.30
2023-07-21T17:19:27.062Z,1.70
2023-07-21T17:21:58.943Z,1.10
2023-07-21T17:24:30.876Z,1.30
2023-07-21T17:27:06.100Z,1.70
2023-07-21T17:29:36.723Z,1.63
2023-07-21T17:32:08.578Z,1.60
2023-07-21T17:34:40.475Z,1.77
2023-07-21T17:37:12.404Z,1.50
2023-07-21T17:39:44.226Z,1.50
2023-07-21T17:42:16.134Z,1.77
2023-07-21T17:44:48.035Z,1.53
2023-07-21T17:47:19.845Z,1.93
2023-07-21T17:49:51.725Z,1.53
2023-07-21T17:52:23.621Z,1.90
2023-07-21T17:54:55.466Z,1.73
2023-07-21T17:57:27.361Z,1.93
2023-07-21T17:59:59.215Z,1.70
2023-07-21T18:02:31.101Z,1.33
2023-07-21T18:05:03.017Z,1.73
2023-07-21T18:07:34.988Z,1.80
2023-07-21T18:10:06.903Z,1.87
2023-07-21T18:12:38.764Z,1.63
2023-07-21T18:15:10.734Z,1.67
2023-07-21T18:17:42.619Z,2.00
2023-07-21T18:20:14.540Z,1.77
2023-07-21T18:22:46.410Z,1.83
2023-07-21T18:25:18.244Z,1.67
2023-07-21T18:27:50.144Z,1.90
2023-07-21T18:30:21.965Z,1.80
2023-07-21T18:32:53.904Z,1.37
2023-07-21T18:35:25.927Z,1.93
2023-07-21T18:37:57.796Z,2.20
2023-07-21T18:40:29.660Z,2.40
2023-07-21T18:43:01.564Z,2.23
2023-07-21T18:45:33.491Z,2.50
2023-07-21T18:48:05.398Z,2.77
2023-07-21T18:50:37.338Z,1.90
2023-07-21T18:53:09.244Z,2.23
2023-07-21T18:55:41.096Z,2.37
2023-07-21T18:58:13.141Z,2.60
2023-07-21T19:00:44.992Z,2.47
2023-07-21T19:03:16.826Z,2.17
2023-07-21T19:05:48.687Z,2.47
2023-07-21T19:08:20.545Z,2.33
2023-07-21T19:10:52.383Z,2.43
2023-07-21T19:13:24.252Z,2.37
2023-07-21T19:15:56.132Z,2.00
2023-07-21T19:18:27.991Z,2.37
2023-07-21T19:20:59.842Z,2.70
2023-07-21T19:23:31.780Z,3.23
2023-07-21T19:26:03.671Z,3.70
2023-07-21T19:28:35.564Z,3.87
2023-07-21T19:31:07.527Z,3.17
2023-07-21T19:33:39.495Z,4.40
2023-07-21T19:36:11.450Z,4.63
2023-07-21T19:38:43.500Z,3.23
2023-07-21T19:41:15.322Z,2.90
2023-07-21T19:43:47.254Z,3.00
2023-07-21T19:46:19.241Z,3.00
2023-07-21T19:48:51.243Z,2.97
2023-07-21T19:51:23.180Z,2.60
2023-07-21T19:53:55.193Z,2.53
2023-07-21T19:56:27.081Z,3.63
2023-07-21T19:58:59.002Z,2.37
2023-07-21T20:01:30.902Z,2.07
2023-07-21T20:04:02.945Z,2.20
2023-07-21T20:06:35.076Z,2.13
2023-07-21T20:09:07.220Z,2.30
2023-07-21T20:11:39.078Z,1.93
2023-07-21T20:14:10.983Z,1.83
2023-07-21T20:16:42.894Z,1.70
2023-07-21T20:19:14.724Z,1.90
2023-07-21T20:21:46.598Z,1.70
2023-07-21T20:24:18.493Z,1.40
2023-07-21T20:26:50.638Z,1.57
2023-07-21T20:29:22.518Z,1.27
2023-07-21T20:31:54.409Z,1.60
2023-07-21T20:34:26.269Z,1.90
2023-07-21T20:36:58.118Z,1.80
2023-07-21T20:39:30.007Z,1.20
2023-07-21T20:42:01.848Z,1.40
2023-07-21T20:44:33.930Z,1.50
2023-07-21T20:47:05.880Z,1.20
2023-07-21T20:49:37.773Z,1.50
2023-07-21T20:52:09.631Z,1.63
2023-07-21T20:54:41.483Z,2.13
2023-07-21T20:57:13.455Z,1.70
2023-07-21T20:59:46.836Z,1.70
2023-07-21T21:02:19.071Z,1.67
2023-07-21T21:04:50.948Z,1.23
2023-07-21T21:07:22.837Z,1.80
2023-07-21T21:09:54.723Z,1.50
2023-07-21T21:12:26.615Z,1.67
2023-07-21T21:14:58.469Z,1.77
2023-07-21T21:17:30.397Z,1.80
2023-07-21T21:20:02.498Z,2.37
2023-07-21T21:22:34.378Z,1.97
2023-07-21T21:25:06.282Z,2.30
2023-07-21T21:27:38.144Z,1.93
2023-07-21T21:30:10.041Z,2.50
2023-07-21T21:32:41.934Z,2.27
2023-07-21T21:35:13.808Z,2.43
2023-07-21T21:37:45.735Z,2.33
2023-07-21T21:40:17.589Z,2.20
2023-07-21T21:42:49.552Z,2.33
2023-07-21T21:45:21.413Z,2.10
2023-07-21T21:47:53.279Z,2.50
2023-07-21T21:50:25.178Z,2.70
2023-07-21T21:52:57.082Z,3.07
2023-07-21T21:55:29.066Z,3.03
2023-07-21T21:58:00.931Z,2.90
2023-07-21T22:00:33.050Z,2.67
2023-07-21T22:03:05.036Z,3.10
2023-07-21T22:05:37.180Z,2.93
2023-07-21T22:08:09.083Z,2.93
2023-07-21T22:10:40.964Z,3.23
2023-07-21T22:13:12.851Z,4.07
2023-07-21T22:15:44.785Z,3.30
2023-07-21T22:18:16.837Z,2.80
2023-07-21T22:20:48.794Z,3.13
2023-07-21T22:23:20.789Z,3.50
2023-07-21T22:25:52.665Z,3.50
2023-07-21T22:28:24.563Z,3.97
2023-07-21T22:30:56.556Z,3.63
2023-07-21T22:33:28.712Z,3.80
2023-07-21T22:36:00.614Z,3.43
2023-07-21T22:38:32.493Z,4.03
2023-07-21T22:41:04.400Z,4.90
2023-07-21T22:43:36.309Z,3.70
2023-07-21T22:46:08.337Z,3.70
2023-07-21T22:48:40.268Z,4.57
2023-07-21T22:51:12.131Z,3.80
2023-07-21T22:53:44.042Z,3.80
2023-07-21T22:56:16.200Z,3.80
2023-07-21T22:58:48.173Z,3.53
2023-07-21T23:01:20.092Z,3.77
2023-07-21T23:03:52.223Z,3.70
2023-07-21T23:06:24.576Z,4.60
2023-07-21T23:08:56.840Z,4.13
2023-07-21T23:11:28.729Z,4.03
2023-07-21T23:14:00.648Z,4.37
2023-07-21T23:16:32.701Z,4.30
2023-07-21T23:19:04.524Z,4.43
2023-07-21T23:21:36.434Z,3.93
2023-07-21T23:24:08.347Z,4.10
2023-07-21T23:26:40.254Z,4.83
2023-07-21T23:29:12.136Z,4.87
2023-07-21T23:31:44.010Z,4.60
2023-07-21T23:34:16.108Z,4.90
2023-07-21T23:36:48.024Z,5.60
2023-07-21T23:39:19.958Z,4.23
2023-07-21T23:41:51.826Z,4.60
2023-07-21T23:44:23.723Z,5.00
2023-07-21T23:46:55.756Z,4.87
2023-07-21T23:49:27.823Z,4.27
2023-07-21T23:51:59.788Z,4.83
2023-07-21T23:54:31.693Z,4.47
2023-07-21T23:57:03.566Z,5.20
2023-07-21T23:59:35.482Z,4.90
